PWSweather.com
Personal Weather Stations
Station Observations
KCOBOOMER
Belmont, Pueblo, CO 81001

BelmontPueblo, CO 81001

Lat: 38.2977486, Lon: -104.5754318

Elevation: 4795

Station Type: Davis Vantage Pro 2

http://www.puebloweather.net

Latest ConditionsUpdated 12:35:03 PM MST Sunday, Feb 1, 2015
Currently Today's Max Today's Min Today's Average
Temperature 33.4°F0.8°C 35.6°F2.0°C 27.3°F-2.6°C 31.4°F-0.3°C
Dew Point 23.3°F-4.8°C 32.9°F0.5°C 18.5°F-7.5°C 24.1°F-4.4°C
Winds 5.0 mph E8.0 kmh E 21.0 mph NNE33.8 kmh NNE - 3.8 mph 6.1 kmh
Wind Gusts 13.0 mph20.9 kmh 34.0 mph54.7 kmh - -
Humidity 66% 93% 64% 74%
Pressure 30.22 in1023.4 mb 30.25 in1024.4 mb 29.94 in1013.9 mb -
Hour Temp Dew Point Humidity Winds Wind Gusts Pressure Precip Precip Rate Daily Precip Total
12:35 PM 33.4°F0.8°C 23.3°F-4.8°C 66% 5.0 mph E8.0 kmh E 13.0 mph20.9 kmh 30.22 in1023.4 mb 0.00 in0.0 mm 0.00 in/hr0.0 mm/hr 0.01 in0.3 mm
12:30 PM 33.7°F0.9°C 22.8°F-5.1°C 64% Calm Calm -- 30.22 in1023.4 mb 0.00 in0.0 mm 0.00 in/hr0.0 mm/hr 0.01 in0.3 mm
12:25 PM 34.3°F1.3°C 23.4°F-4.8°C 64% 12.0 mph NE19.3 kmh NE 15.0 mph24.1 kmh 30.22 in1023.4 mb 0.00 in0.0 mm 0.00 in/hr0.0 mm/hr 0.01 in0.3 mm
12:20 PM 34.1°F1.2°C 23.2°F-4.9°C 64% Calm Calm -- 30.22 in1023.4 mb 0.00 in0.0 mm 0.00 in/hr0.0 mm/hr 0.01 in0.3 mm
12:15 PM 34.1°F1.2°C 23.2°F-4.9°C 64% 8.0 mph E12.9 kmh E 16.0 mph25.7 kmh 30.23 in1023.7 mb 0.00 in0.0 mm 0.00 in/hr0.0 mm/hr 0.01 in0.3 mm
12:10 PM 34.2°F1.2°C 23.7°F-4.6°C 65% 5.0 mph NE8.0 kmh NE 10.0 mph16.1 kmh 30.23 in1023.7 mb 0.00 in0.0 mm 0.00 in/hr0.0 mm/hr 0.01 in0.3 mm
12:05 PM 34.1°F1.2°C 23.2°F-4.9°C 64% 4.0 mph ESE6.4 kmh ESE 16.0 mph25.7 kmh 30.23 in1023.7 mb 0.00 in0.0 mm 0.00 in/hr0.0 mm/hr 0.01 in0.3 mm
12:00 PM 33.9°F1.1°C 23.0°F-5.0°C 64% 11.0 mph SE17.7 kmh SE 11.0 mph17.7 kmh 30.23 in1023.7 mb 0.00 in0.0 mm 0.00 in/hr0.0 mm/hr 0.01 in0.3 mm
11:55 AM 33.6°F0.9°C 23.8°F-4.6°C 67% 8.0 mph ESE12.9 kmh ESE 11.0 mph17.7 kmh 30.23 in1023.7 mb 0.00 in0.0 mm 0.00 in/hr0.0 mm/hr 0.01 in0.3 mm
11:50 AM 33.5°F0.8°C 23.4°F-4.8°C 66% Calm Calm 7.0 mph11.3 kmh 30.23 in1023.7 mb 0.00 in0.0 mm 0.00 in/hr0.0 mm/hr 0.01 in0.3 mm
11:45 AM 33.4°F0.8°C 23.6°F-4.7°C 67% Calm Calm 13.0 mph20.9 kmh 30.23 in1023.7 mb 0.00 in0.0 mm 0.00 in/hr0.0 mm/hr 0.01 in0.3 mm
11:40 AM 33.2°F0.7°C 23.8°F-4.6°C 68% 7.0 mph E11.3 kmh E 9.0 mph14.5 kmh 30.24 in1024.0 mb 0.00 in0.0 mm 0.00 in/hr0.0 mm/hr 0.01 in0.3 mm
11:35 AM 33.0°F0.6°C 23.6°F-4.7°C 68% 8.0 mph E12.9 kmh E 15.0 mph24.1 kmh 30.24 in1024.0 mb 0.00 in0.0 mm 0.00 in/hr0.0 mm/hr 0.01 in0.3 mm
11:30 AM 33.3°F0.7°C 23.9°F-4.5°C 68% 10.0 mph NE16.1 kmh NE 15.0 mph24.1 kmh 30.24 in1024.0 mb 0.00 in0.0 mm 0.00 in/hr0.0 mm/hr 0.01 in0.3 mm
11:25 AM 33.4°F0.8°C 24.7°F-4.1°C 70% 5.0 mph ESE8.0 kmh ESE 16.0 mph25.7 kmh 30.24 in1024.0 mb 0.00 in0.0 mm 0.00 in/hr0.0 mm/hr 0.01 in0.3 mm
11:20 AM 33.0°F0.6°C 24.3°F-4.3°C 70% 5.0 mph ESE8.0 kmh ESE 8.0 mph12.9 kmh 30.24 in1024.0 mb 0.00 in0.0 mm 0.00 in/hr0.0 mm/hr 0.01 in0.3 mm
11:15 AM 33.0°F0.6°C 24.3°F-4.3°C 70% 6.0 mph E9.7 kmh E 16.0 mph25.7 kmh 30.25 in1024.4 mb 0.00 in0.0 mm 0.00 in/hr0.0 mm/hr 0.01 in0.3 mm
11:10 AM 33.0°F0.6°C 24.6°F-4.1°C 71% 4.0 mph ESE6.4 kmh ESE 11.0 mph17.7 kmh 30.24 in1024.0 mb 0.00 in0.0 mm 0.00 in/hr0.0 mm/hr 0.01 in0.3 mm
11:05 AM 32.6°F0.3°C 23.9°F-4.5°C 70% 7.0 mph E11.3 kmh E 15.0 mph24.1 kmh 30.24 in1024.0 mb 0.00 in0.0 mm 0.00 in/hr0.0 mm/hr 0.01 in0.3 mm
11:00 AM 32.8°F0.4°C 24.5°F-4.2°C 71% Calm Calm -- 30.24 in1024.0 mb 0.00 in0.0 mm 0.00 in/hr0.0 mm/hr 0.01 in0.3 mm
10:55 AM 32.9°F0.5°C 24.5°F-4.2°C 71% 5.0 mph E8.0 kmh E 19.0 mph30.6 kmh 30.24 in1024.0 mb 0.00 in0.0 mm 0.00 in/hr0.0 mm/hr 0.01 in0.3 mm
10:50 AM 32.6°F0.3°C 23.9°F-4.5°C 70% 1.0 mph E1.6 kmh E 1.0 mph1.6 kmh 30.24 in1024.0 mb 0.00 in0.0 mm 0.00 in/hr0.0 mm/hr 0.01 in0.3 mm
10:45 AM 32.4°F0.2°C 23.7°F-4.6°C 70% 9.0 mph ESE14.5 kmh ESE 21.0 mph33.8 kmh 30.24 in1024.0 mb 0.00 in0.0 mm 0.00 in/hr0.0 mm/hr 0.01 in0.3 mm
10:40 AM 32.4°F0.2°C 23.4°F-4.8°C 69% 18.0 mph E29.0 kmh E 18.0 mph29.0 kmh 30.24 in1024.0 mb 0.00 in0.0 mm 0.00 in/hr0.0 mm/hr 0.01 in0.3 mm
10:35 AM 32.3°F0.2°C 22.6°F-5.2°C 67% Calm Calm 11.0 mph17.7 kmh 30.24 in1024.0 mb 0.00 in0.0 mm 0.00 in/hr0.0 mm/hr 0.01 in0.3 mm
10:30 AM 32.2°F0.1°C 22.5°F-5.3°C 67% Calm Calm -- 30.24 in1024.0 mb 0.00 in0.0 mm 0.00 in/hr0.0 mm/hr 0.01 in0.3 mm
10:25 AM 32.3°F0.2°C 22.2°F-5.4°C 66% Calm Calm 14.0 mph22.5 kmh 30.23 in1023.7 mb 0.00 in0.0 mm 0.00 in/hr0.0 mm/hr 0.01 in0.3 mm
10:20 AM 32.3°F0.2°C 21.9°F-5.6°C 65% 9.0 mph ENE14.5 kmh ENE 9.0 mph14.5 kmh 30.23 in1023.7 mb 0.00 in0.0 mm 0.00 in/hr0.0 mm/hr 0.01 in0.3 mm
10:15 AM 31.9°F-0.1°C 21.9°F-5.6°C 66% Calm Calm 18.0 mph29.0 kmh 30.23 in1023.7 mb 0.00 in0.0 mm 0.00 in/hr0.0 mm/hr 0.01 in0.3 mm
10:10 AM 31.8°F-0.1°C 21.8°F-5.7°C 66% 18.0 mph E29.0 kmh E 18.0 mph29.0 kmh 30.23 in1023.7 mb 0.00 in0.0 mm 0.00 in/hr0.0 mm/hr 0.01 in0.3 mm
10:05 AM 31.2°F-0.4°C 21.2°F-6.0°C 66% 3.0 mph E4.8 kmh E 10.0 mph16.1 kmh 30.23 in1023.7 mb 0.00 in0.0 mm 0.00 in/hr0.0 mm/hr 0.01 in0.3 mm
10:00 AM 31.4°F-0.3°C 21.7°F-5.7°C 67% 5.0 mph ESE8.0 kmh ESE 9.0 mph14.5 kmh 30.23 in1023.7 mb 0.00 in0.0 mm 0.00 in/hr0.0 mm/hr 0.01 in0.3 mm
09:55 AM 30.8°F-0.7°C 20.4°F-6.4°C 65% 13.0 mph ENE20.9 kmh ENE 15.0 mph24.1 kmh 30.22 in1023.4 mb 0.00 in0.0 mm 0.00 in/hr0.0 mm/hr 0.01 in0.3 mm
09:50 AM 30.7°F-0.7°C 20.3°F-6.5°C 65% 12.0 mph NE19.3 kmh NE 12.0 mph19.3 kmh 30.23 in1023.7 mb 0.00 in0.0 mm 0.00 in/hr0.0 mm/hr 0.01 in0.3 mm
09:45 AM 30.4°F-0.9°C 20.1°F-6.6°C 65% Calm Calm 14.0 mph22.5 kmh 30.22 in1023.4 mb 0.00 in0.0 mm 0.00 in/hr0.0 mm/hr 0.01 in0.3 mm
09:40 AM 30.3°F-0.9°C 20.0°F-6.7°C 65% 6.0 mph NNE9.7 kmh NNE 13.0 mph20.9 kmh 30.22 in1023.4 mb 0.00 in0.0 mm 0.00 in/hr0.0 mm/hr 0.01 in0.3 mm
09:35 AM 29.9°F-1.2°C 19.9°F-6.7°C 66% Calm Calm 13.0 mph20.9 kmh 30.22 in1023.4 mb 0.00 in0.0 mm 0.00 in/hr0.0 mm/hr 0.01 in0.3 mm
09:30 AM 29.6°F-1.3°C 19.7°F-6.8°C 66% 11.0 mph N17.7 kmh N 13.0 mph20.9 kmh 30.22 in1023.4 mb 0.00 in0.0 mm 0.00 in/hr0.0 mm/hr 0.01 in0.3 mm
09:25 AM 29.4°F-1.4°C 19.1°F-7.2°C 65% 10.0 mph N16.1 kmh N 14.0 mph22.5 kmh 30.21 in1023.0 mb 0.00 in0.0 mm 0.00 in/hr0.0 mm/hr 0.01 in0.3 mm
09:20 AM 29.4°F-1.4°C 19.1°F-7.2°C 65% 6.0 mph E9.7 kmh E 6.0 mph9.7 kmh 30.21 in1023.0 mb 0.00 in0.0 mm 0.00 in/hr0.0 mm/hr 0.01 in0.3 mm
09:15 AM 29.6°F-1.3°C 19.3°F-7.1°C 65% Calm Calm 14.0 mph22.5 kmh 30.21 in1023.0 mb 0.00 in0.0 mm 0.00 in/hr0.0 mm/hr 0.01 in0.3 mm
09:10 AM 29.5°F-1.4°C 19.6°F-6.9°C 66% 6.0 mph NE9.7 kmh NE 14.0 mph22.5 kmh 30.21 in1023.0 mb 0.00 in0.0 mm 0.00 in/hr0.0 mm/hr 0.01 in0.3 mm
09:05 AM 29.3°F-1.5°C 19.7°F-6.8°C 67% Calm Calm 11.0 mph17.7 kmh 30.21 in1023.0 mb 0.00 in0.0 mm 0.00 in/hr0.0 mm/hr 0.01 in0.3 mm
09:00 AM 29.0°F-1.7°C 19.4°F-7.0°C 67% 1.0 mph N1.6 kmh N 8.0 mph12.9 kmh 30.21 in1023.0 mb 0.00 in0.0 mm 0.00 in/hr0.0 mm/hr 0.01 in0.3 mm
08:55 AM 28.8°F-1.8°C 19.2°F-7.1°C 67% 11.0 mph NE17.7 kmh NE 12.0 mph19.3 kmh 30.20 in1022.7 mb 0.00 in0.0 mm 0.00 in/hr0.0 mm/hr 0.01 in0.3 mm
08:50 AM 28.7°F-1.8°C 19.5°F-6.9°C 68% Calm Calm -- 30.20 in1022.7 mb 0.00 in0.0 mm 0.00 in/hr0.0 mm/hr 0.01 in0.3 mm
08:45 AM 28.7°F-1.8°C 19.8°F-6.8°C 69% 11.0 mph ENE17.7 kmh ENE 17.0 mph27.4 kmh 30.20 in1022.7 mb 0.00 in0.0 mm 0.00 in/hr0.0 mm/hr 0.01 in0.3 mm
08:40 AM 28.7°F-1.8°C 19.5°F-6.9°C 68% 10.0 mph NE16.1 kmh NE 10.0 mph16.1 kmh 30.20 in1022.7 mb 0.00 in0.0 mm 0.00 in/hr0.0 mm/hr 0.01 in0.3 mm
08:35 AM 28.7°F-1.8°C 20.2°F-6.6°C 70% 9.0 mph ENE14.5 kmh ENE 11.0 mph17.7 kmh 30.20 in1022.7 mb 0.00 in0.0 mm 0.00 in/hr0.0 mm/hr 0.01 in0.3 mm
08:30 AM 28.4°F-2.0°C 20.5°F-6.4°C 72% Calm Calm -- 30.19 in1022.4 mb 0.00 in0.0 mm 0.00 in/hr0.0 mm/hr 0.01 in0.3 mm
08:25 AM 28.3°F-2.1°C 20.4°F-6.4°C 72% Calm Calm 10.0 mph16.1 kmh 30.19 in1022.4 mb 0.00 in0.0 mm 0.00 in/hr0.0 mm/hr 0.01 in0.3 mm
08:20 AM 28.3°F-2.1°C 20.8°F-6.2°C 73% 8.0 mph E12.9 kmh E 9.0 mph14.5 kmh 30.19 in1022.4 mb 0.00 in0.0 mm 0.00 in/hr0.0 mm/hr 0.01 in0.3 mm
08:15 AM 28.0°F-2.2°C 20.5°F-6.4°C 73% Calm Calm -- 30.19 in1022.4 mb 0.00 in0.0 mm 0.00 in/hr0.0 mm/hr 0.01 in0.3 mm
08:10 AM 27.9°F-2.3°C 20.1°F-6.6°C 72% Calm Calm -- 30.19 in1022.4 mb 0.00 in0.0 mm 0.00 in/hr0.0 mm/hr 0.01 in0.3 mm
08:05 AM 27.8°F-2.3°C 20.0°F-6.7°C 72% Calm Calm 2.0 mph3.2 kmh 30.19 in1022.4 mb 0.00 in0.0 mm 0.00 in/hr0.0 mm/hr 0.01 in0.3 mm
08:00 AM 27.8°F-2.3°C 20.0°F-6.7°C 72% Calm Calm -- 30.19 in1022.4 mb 0.00 in0.0 mm 0.00 in/hr0.0 mm/hr 0.01 in0.3 mm
07:55 AM 27.8°F-2.3°C 20.0°F-6.7°C 72% Calm Calm 7.0 mph11.3 kmh 30.19 in1022.4 mb 0.00 in0.0 mm 0.00 in/hr0.0 mm/hr 0.01 in0.3 mm
07:50 AM 27.7°F-2.4°C 19.9°F-6.7°C 72% Calm Calm -- 30.18 in1022.0 mb 0.00 in0.0 mm 0.00 in/hr0.0 mm/hr 0.01 in0.3 mm
07:45 AM 27.5°F-2.5°C 19.7°F-6.8°C 72% Calm Calm -- 30.18 in1022.0 mb 0.00 in0.0 mm 0.00 in/hr0.0 mm/hr 0.01 in0.3 mm
07:40 AM 27.3°F-2.6°C 19.5°F-6.9°C 72% Calm Calm -- 30.18 in1022.0 mb 0.00 in0.0 mm 0.00 in/hr0.0 mm/hr 0.01 in0.3 mm
07:35 AM 27.3°F-2.6°C 19.2°F-7.1°C 71% Calm Calm -- 30.18 in1022.0 mb 0.00 in0.0 mm 0.00 in/hr0.0 mm/hr 0.01 in0.3 mm
07:30 AM 27.4°F-2.6°C 18.9°F-7.3°C 70% Calm Calm -- 30.18 in1022.0 mb 0.00 in0.0 mm 0.00 in/hr0.0 mm/hr 0.01 in0.3 mm
07:25 AM 27.3°F-2.6°C 18.5°F-7.5°C 69% Calm Calm -- 30.17 in1021.7 mb 0.00 in0.0 mm 0.00 in/hr0.0 mm/hr 0.01 in0.3 mm
07:20 AM 27.4°F-2.6°C 18.6°F-7.4°C 69% Calm Calm -- 30.17 in1021.7 mb 0.00 in0.0 mm 0.00 in/hr0.0 mm/hr 0.01 in0.3 mm
07:15 AM 27.5°F-2.5°C 18.7°F-7.4°C 69% Calm Calm -- 30.17 in1021.7 mb 0.00 in0.0 mm 0.00 in/hr0.0 mm/hr 0.01 in0.3 mm
07:10 AM 27.7°F-2.4°C 18.9°F-7.3°C 69% Calm Calm -- 30.17 in1021.7 mb 0.00 in0.0 mm 0.00 in/hr0.0 mm/hr 0.01 in0.3 mm
07:05 AM 27.8°F-2.3°C 19.0°F-7.2°C 69% 4.0 mph NNE6.4 kmh NNE 12.0 mph19.3 kmh 30.17 in1021.7 mb 0.00 in0.0 mm 0.00 in/hr0.0 mm/hr 0.01 in0.3 mm
07:00 AM 27.9°F-2.3°C 19.1°F-7.2°C 69% 4.0 mph N6.4 kmh N 4.0 mph6.4 kmh 30.16 in1021.3 mb 0.00 in0.0 mm 0.00 in/hr0.0 mm/hr 0.01 in0.3 mm
06:55 AM 28.0°F-2.2°C 19.8°F-6.8°C 71% 7.0 mph E11.3 kmh E 10.0 mph16.1 kmh 30.16 in1021.3 mb 0.00 in0.0 mm 0.00 in/hr0.0 mm/hr 0.01 in0.3 mm
06:50 AM 28.1°F-2.2°C 19.9°F-6.7°C 71% Calm Calm -- 30.16 in1021.3 mb 0.00 in0.0 mm 0.00 in/hr0.0 mm/hr 0.01 in0.3 mm
06:45 AM 28.2°F-2.1°C 20.0°F-6.7°C 71% Calm Calm 20.0 mph32.2 kmh 30.15 in1021.0 mb 0.00 in0.0 mm 0.00 in/hr0.0 mm/hr 0.01 in0.3 mm
06:40 AM 28.3°F-2.1°C 19.8°F-6.8°C 70% Calm Calm -- 30.16 in1021.3 mb 0.00 in0.0 mm 0.00 in/hr0.0 mm/hr 0.01 in0.3 mm
06:35 AM 28.3°F-2.1°C 20.1°F-6.6°C 71% 2.0 mph N3.2 kmh N 10.0 mph16.1 kmh 30.15 in1021.0 mb 0.00 in0.0 mm 0.00 in/hr0.0 mm/hr 0.01 in0.3 mm
06:30 AM 28.4°F-2.0°C 20.5°F-6.4°C 72% Calm Calm 6.0 mph9.7 kmh 30.15 in1021.0 mb 0.00 in0.0 mm 0.00 in/hr0.0 mm/hr 0.01 in0.3 mm
06:25 AM 28.5°F-1.9°C 20.6°F-6.3°C 72% Calm Calm -- 30.14 in1020.7 mb 0.00 in0.0 mm 0.00 in/hr0.0 mm/hr 0.01 in0.3 mm
06:20 AM 28.5°F-1.9°C 20.6°F-6.3°C 72% Calm Calm -- 30.14 in1020.7 mb 0.00 in0.0 mm 0.00 in/hr0.0 mm/hr 0.01 in0.3 mm
06:15 AM 28.6°F-1.9°C 21.1°F-6.1°C 73% Calm Calm 1.0 mph1.6 kmh 30.14 in1020.7 mb 0.00 in0.0 mm 0.00 in/hr0.0 mm/hr 0.01 in0.3 mm
06:10 AM 28.6°F-1.9°C 21.1°F-6.1°C 73% Calm Calm 1.0 mph1.6 kmh 30.13 in1020.3 mb 0.00 in0.0 mm 0.00 in/hr0.0 mm/hr 0.01 in0.3 mm
06:05 AM 28.4°F-2.0°C 21.5°F-5.8°C 75% Calm Calm -- 30.13 in1020.3 mb 0.00 in0.0 mm 0.00 in/hr0.0 mm/hr 0.01 in0.3 mm
06:00 AM 28.4°F-2.0°C 21.5°F-5.8°C 75% Calm Calm -- 30.13 in1020.3 mb 0.00 in0.0 mm 0.00 in/hr0.0 mm/hr 0.01 in0.3 mm
05:55 AM 28.5°F-1.9°C 21.6°F-5.8°C 75% 7.0 mph ENE11.3 kmh ENE 7.0 mph11.3 kmh 30.12 in1020.0 mb 0.00 in0.0 mm 0.00 in/hr0.0 mm/hr 0.01 in0.3 mm
05:50 AM 28.7°F-1.8°C 21.8°F-5.7°C 75% Calm Calm -- 30.12 in1020.0 mb 0.00 in0.0 mm 0.00 in/hr0.0 mm/hr 0.01 in0.3 mm
05:45 AM 28.9°F-1.7°C 21.7°F-5.7°C 74% Calm Calm 7.0 mph11.3 kmh 30.12 in1020.0 mb 0.00 in0.0 mm 0.00 in/hr0.0 mm/hr 0.01 in0.3 mm
05:40 AM 29.0°F-1.7°C 21.8°F-5.7°C 74% Calm Calm -- 30.11 in1019.6 mb 0.00 in0.0 mm 0.00 in/hr0.0 mm/hr 0.01 in0.3 mm
05:35 AM 29.2°F-1.6°C 22.0°F-5.6°C 74% Calm Calm 11.0 mph17.7 kmh 30.11 in1019.6 mb 0.00 in0.0 mm 0.00 in/hr0.0 mm/hr 0.01 in0.3 mm
05:30 AM 29.3°F-1.5°C 22.4°F-5.3°C 75% 8.0 mph N12.9 kmh N 8.0 mph12.9 kmh 30.11 in1019.6 mb 0.00 in0.0 mm 0.00 in/hr0.0 mm/hr 0.01 in0.3 mm
05:25 AM 29.4°F-1.4°C 22.2°F-5.4°C 74% 18.0 mph NE29.0 kmh NE 18.0 mph29.0 kmh 30.11 in1019.6 mb 0.00 in0.0 mm 0.00 in/hr0.0 mm/hr 0.01 in0.3 mm
05:20 AM 29.5°F-1.4°C 22.6°F-5.2°C 75% 4.0 mph NE6.4 kmh NE 10.0 mph16.1 kmh 30.10 in1019.3 mb 0.00 in0.0 mm 0.00 in/hr0.0 mm/hr 0.01 in0.3 mm
05:15 AM 29.5°F-1.4°C 22.9°F-5.1°C 76% Calm Calm 13.0 mph20.9 kmh 30.10 in1019.3 mb 0.00 in0.0 mm 0.00 in/hr0.0 mm/hr 0.01 in0.3 mm
05:10 AM 29.5°F-1.4°C 23.2°F-4.9°C 77% 8.0 mph NNW12.9 kmh NNW 10.0 mph16.1 kmh 30.09 in1019.0 mb 0.00 in0.0 mm 0.00 in/hr0.0 mm/hr 0.01 in0.3 mm
05:05 AM 29.4°F-1.4°C 23.4°F-4.8°C 78% 8.0 mph N12.9 kmh N 8.0 mph12.9 kmh 30.09 in1019.0 mb 0.00 in0.0 mm 0.00 in/hr0.0 mm/hr 0.01 in0.3 mm
05:00 AM 29.5°F-1.4°C 23.8°F-4.6°C 79% Calm Calm -- 30.08 in1018.6 mb 0.00 in0.0 mm 0.00 in/hr0.0 mm/hr 0.01 in0.3 mm
04:55 AM 29.6°F-1.3°C 23.9°F-4.5°C 79% Calm Calm -- 30.08 in1018.6 mb 0.00 in0.0 mm 0.00 in/hr0.0 mm/hr 0.01 in0.3 mm
04:50 AM 29.7°F-1.3°C 24.0°F-4.4°C 79% Calm Calm -- 30.08 in1018.6 mb 0.00 in0.0 mm 0.00 in/hr0.0 mm/hr 0.01 in0.3 mm
04:45 AM 29.8°F-1.2°C 24.1°F-4.4°C 79% 2.0 mph NNE3.2 kmh NNE 7.0 mph11.3 kmh 30.08 in1018.6 mb 0.00 in0.0 mm 0.00 in/hr0.0 mm/hr 0.01 in0.3 mm
04:40 AM 29.9°F-1.2°C 24.2°F-4.3°C 79% Calm Calm -- 30.08 in1018.6 mb 0.00 in0.0 mm 0.00 in/hr0.0 mm/hr 0.01 in0.3 mm
04:35 AM 30.2°F-1.0°C 24.2°F-4.3°C 78% Calm Calm -- 30.07 in1018.3 mb 0.00 in0.0 mm 0.00 in/hr0.0 mm/hr 0.01 in0.3 mm
04:30 AM 30.4°F-0.9°C 24.4°F-4.2°C 78% Calm Calm -- 30.08 in1018.6 mb 0.00 in0.0 mm 0.00 in/hr0.0 mm/hr 0.01 in0.3 mm
04:25 AM 30.7°F-0.7°C 24.7°F-4.1°C 78% Calm Calm -- 30.07 in1018.3 mb 0.00 in0.0 mm 0.00 in/hr0.0 mm/hr 0.01 in0.3 mm
04:20 AM 30.9°F-0.6°C 24.6°F-4.1°C 77% Calm Calm -- 30.07 in1018.3 mb 0.00 in0.0 mm 0.00 in/hr0.0 mm/hr 0.01 in0.3 mm
04:15 AM 31.1°F-0.5°C 24.8°F-4.0°C 77% Calm Calm 11.0 mph17.7 kmh 30.07 in1018.3 mb 0.00 in0.0 mm 0.00 in/hr0.0 mm/hr 0.01 in0.3 mm
04:10 AM 31.2°F-0.4°C 24.8°F-4.0°C 77% Calm Calm -- 30.07 in1018.3 mb 0.00 in0.0 mm 0.00 in/hr0.0 mm/hr 0.01 in0.3 mm
04:05 AM 31.3°F-0.4°C 24.9°F-3.9°C 77% Calm Calm 8.0 mph12.9 kmh 30.06 in1017.9 mb 0.00 in0.0 mm 0.00 in/hr0.0 mm/hr 0.01 in0.3 mm
04:00 AM 31.4°F-0.3°C 25.0°F-3.9°C 77% Calm Calm 4.0 mph6.4 kmh 30.06 in1017.9 mb 0.00 in0.0 mm 0.00 in/hr0.0 mm/hr 0.01 in0.3 mm
03:55 AM 31.3°F-0.4°C 25.3°F-3.7°C 78% 6.0 mph NNE9.7 kmh NNE 14.0 mph22.5 kmh 30.05 in1017.6 mb 0.00 in0.0 mm 0.00 in/hr0.0 mm/hr 0.01 in0.3 mm
03:50 AM 31.4°F-0.3°C 25.4°F-3.7°C 78% 2.0 mph NE3.2 kmh NE 8.0 mph12.9 kmh 30.05 in1017.6 mb 0.00 in0.0 mm 0.00 in/hr0.0 mm/hr 0.01 in0.3 mm
03:45 AM 31.5°F-0.3°C 25.4°F-3.7°C 78% Calm Calm -- 30.05 in1017.6 mb 0.00 in0.0 mm 0.00 in/hr0.0 mm/hr 0.01 in0.3 mm
03:40 AM 31.7°F-0.2°C 25.3°F-3.7°C 77% Calm Calm -- 30.05 in1017.6 mb 0.00 in0.0 mm 0.00 in/hr0.0 mm/hr 0.01 in0.3 mm
03:35 AM 31.9°F-0.1°C 25.2°F-3.8°C 76% Calm Calm 8.0 mph12.9 kmh 30.05 in1017.6 mb 0.00 in0.0 mm 0.00 in/hr0.0 mm/hr 0.01 in0.3 mm
03:30 AM 32.0°F0.0°C 25.3°F-3.7°C 76% Calm Calm -- 30.04 in1017.3 mb 0.00 in0.0 mm 0.00 in/hr0.0 mm/hr 0.01 in0.3 mm
03:25 AM 32.2°F0.1°C 25.5°F-3.6°C 76% Calm Calm 6.0 mph9.7 kmh 30.04 in1017.3 mb 0.00 in0.0 mm 0.00 in/hr0.0 mm/hr 0.01 in0.3 mm
03:20 AM 32.3°F0.2°C 25.6°F-3.6°C 76% 6.0 mph N9.7 kmh N 6.0 mph9.7 kmh 30.04 in1017.3 mb 0.00 in0.0 mm 0.00 in/hr0.0 mm/hr 0.01 in0.3 mm
03:15 AM 32.5°F0.3°C 25.8°F-3.4°C 76% Calm Calm 10.0 mph16.1 kmh 30.04 in1017.3 mb 0.00 in0.0 mm 0.00 in/hr0.0 mm/hr 0.01 in0.3 mm
03:10 AM 32.7°F0.4°C 26.0°F-3.3°C 76% Calm Calm -- 30.04 in1017.3 mb 0.00 in0.0 mm 0.00 in/hr0.0 mm/hr 0.01 in0.3 mm
03:05 AM 32.9°F0.5°C 26.5°F-3.1°C 77% 6.0 mph N9.7 kmh N 9.0 mph14.5 kmh 30.04 in1017.3 mb 0.00 in0.0 mm 0.00 in/hr0.0 mm/hr 0.01 in0.3 mm
03:00 AM 33.0°F0.6°C 26.6°F-3.0°C 77% Calm Calm 2.0 mph3.2 kmh 30.04 in1017.3 mb 0.00 in0.0 mm 0.00 in/hr0.0 mm/hr 0.01 in0.3 mm
02:55 AM 33.2°F0.7°C 26.8°F-2.9°C 77% Calm Calm -- 30.04 in1017.3 mb 0.00 in0.0 mm 0.00 in/hr0.0 mm/hr 0.01 in0.3 mm
02:50 AM 33.4°F0.8°C 27.0°F-2.8°C 77% Calm Calm -- 30.03 in1016.9 mb 0.00 in0.0 mm 0.00 in/hr0.0 mm/hr 0.01 in0.3 mm
02:45 AM 33.6°F0.9°C 27.2°F-2.7°C 77% Calm Calm 9.0 mph14.5 kmh 30.03 in1016.9 mb 0.00 in0.0 mm 0.00 in/hr0.0 mm/hr 0.01 in0.3 mm
02:40 AM 33.8°F1.0°C 27.4°F-2.6°C 77% Calm Calm -- 30.03 in1016.9 mb 0.00 in0.0 mm 0.00 in/hr0.0 mm/hr 0.01 in0.3 mm
02:35 AM 34.0°F1.1°C 27.6°F-2.4°C 77% Calm Calm 14.0 mph22.5 kmh 30.03 in1016.9 mb 0.00 in0.0 mm 0.00 in/hr0.0 mm/hr 0.01 in0.3 mm
02:30 AM 34.2°F1.2°C 27.8°F-2.3°C 77% Calm Calm -- 30.02 in1016.6 mb 0.00 in0.0 mm 0.00 in/hr0.0 mm/hr 0.01 in0.3 mm
02:25 AM 34.3°F1.3°C 28.2°F-2.1°C 78% 7.0 mph NW11.3 kmh NW 18.0 mph29.0 kmh 30.02 in1016.6 mb 0.01 in0.3 mm 0.00 in/hr0.0 mm/hr 0.01 in0.3 mm
02:20 AM 34.5°F1.4°C 28.7°F-1.8°C 79% Calm Calm 6.0 mph9.7 kmh 30.01 in1016.3 mb 0.01 in0.3 mm 0.00 in/hr0.0 mm/hr 0.01 in0.3 mm
02:15 AM 34.7°F1.5°C 29.2°F-1.6°C 80% 6.0 mph NW9.7 kmh NW 22.0 mph35.4 kmh 30.01 in1016.3 mb 0.01 in0.3 mm 0.00 in/hr0.0 mm/hr 0.01 in0.3 mm
02:10 AM 34.7°F1.5°C 29.5°F-1.4°C 81% 14.0 mph NNW22.5 kmh NNW 14.0 mph22.5 kmh 30.01 in1016.3 mb 0.01 in0.3 mm 0.00 in/hr0.0 mm/hr 0.01 in0.3 mm
02:05 AM 34.6°F1.4°C 29.7°F-1.3°C 82% 13.0 mph NNW20.9 kmh NNW 22.0 mph35.4 kmh 30.01 in1016.3 mb 0.01 in0.3 mm 0.00 in/hr0.0 mm/hr 0.01 in0.3 mm
02:00 AM 34.6°F1.4°C 29.7°F-1.3°C 82% 10.0 mph N16.1 kmh N 16.0 mph25.7 kmh 30.00 in1015.9 mb 0.01 in0.3 mm 0.00 in/hr0.0 mm/hr 0.01 in0.3 mm
01:55 AM 34.6°F1.4°C 29.7°F-1.3°C 82% 9.0 mph NNW14.5 kmh NNW 20.0 mph32.2 kmh 30.00 in1015.9 mb 0.01 in0.3 mm 0.00 in/hr0.0 mm/hr 0.01 in0.3 mm
01:50 AM 34.7°F1.5°C 29.8°F-1.2°C 82% 7.0 mph N11.3 kmh N 7.0 mph11.3 kmh 30.00 in1015.9 mb 0.01 in0.3 mm 0.00 in/hr0.0 mm/hr 0.01 in0.3 mm
01:45 AM 34.9°F1.6°C 30.0°F-1.1°C 82% 16.0 mph N25.7 kmh N 20.0 mph32.2 kmh 29.99 in1015.6 mb 0.01 in0.3 mm 0.00 in/hr0.0 mm/hr 0.01 in0.3 mm
01:40 AM 35.1°F1.7°C 29.9°F-1.2°C 81% 15.0 mph N24.1 kmh N 17.0 mph27.4 kmh 29.99 in1015.6 mb 0.01 in0.3 mm 0.00 in/hr0.0 mm/hr 0.01 in0.3 mm
01:35 AM 35.3°F1.8°C 30.1°F-1.1°C 81% 12.0 mph N19.3 kmh N 34.0 mph54.7 kmh 29.98 in1015.2 mb 0.01 in0.3 mm 0.00 in/hr0.0 mm/hr 0.01 in0.3 mm
01:30 AM 35.5°F1.9°C 30.6°F-0.8°C 82% 12.0 mph N19.3 kmh N 20.0 mph32.2 kmh 29.98 in1015.2 mb 0.01 in0.3 mm 0.12 in/hr3.0 mm/hr 0.01 in0.3 mm
01:25 AM 35.6°F2.0°C 30.7°F-0.7°C 82% 4.0 mph N6.4 kmh N 20.0 mph32.2 kmh 29.98 in1015.2 mb 0.00 in0.0 mm 0.00 in/hr0.0 mm/hr 0.00 in0.0 mm
01:20 AM 35.6°F2.0°C 31.0°F-0.6°C 83% 9.0 mph NNE14.5 kmh NNE 18.0 mph29.0 kmh 29.98 in1015.2 mb 0.00 in0.0 mm 0.00 in/hr0.0 mm/hr 0.00 in0.0 mm
01:15 AM 35.5°F1.9°C 31.2°F-0.4°C 84% 9.0 mph NE14.5 kmh NE 22.0 mph35.4 kmh 29.97 in1014.9 mb 0.00 in0.0 mm 0.00 in/hr0.0 mm/hr 0.00 in0.0 mm
01:10 AM 35.4°F1.9°C 31.9°F-0.1°C 87% 15.0 mph NNE24.1 kmh NNE 15.0 mph24.1 kmh 29.98 in1015.2 mb 0.00 in0.0 mm 0.00 in/hr0.0 mm/hr 0.00 in0.0 mm
01:05 AM 35.3°F1.8°C 32.4°F0.2°C 89% 21.0 mph NNE33.8 kmh NNE 21.0 mph33.8 kmh 29.97 in1014.9 mb 0.00 in0.0 mm 0.00 in/hr0.0 mm/hr 0.00 in0.0 mm
01:00 AM 35.2°F1.8°C 32.8°F0.4°C 91% Calm Calm -- 29.97 in1014.9 mb 0.00 in0.0 mm 0.00 in/hr0.0 mm/hr 0.00 in0.0 mm
12:55 AM 35.0°F1.7°C 32.9°F0.5°C 92% Calm Calm 13.0 mph20.9 kmh 29.97 in1014.9 mb 0.00 in0.0 mm 0.00 in/hr0.0 mm/hr 0.00 in0.0 mm
12:50 AM 34.7°F1.5°C 32.9°F0.5°C 93% 10.0 mph NE16.1 kmh NE 10.0 mph16.1 kmh 29.97 in1014.9 mb 0.00 in0.0 mm 0.00 in/hr0.0 mm/hr 0.00 in0.0 mm
12:45 AM 34.5°F1.4°C 32.7°F0.4°C 93% 2.0 mph NNE3.2 kmh NNE 11.0 mph17.7 kmh 29.97 in1014.9 mb 0.00 in0.0 mm 0.00 in/hr0.0 mm/hr 0.00 in0.0 mm
12:40 AM 34.5°F1.4°C 32.7°F0.4°C 93% Calm Calm -- 29.97 in1014.9 mb 0.00 in0.0 mm 0.00 in/hr0.0 mm/hr 0.00 in0.0 mm
12:35 AM 34.4°F1.3°C 32.6°F0.3°C 93% Calm Calm -- 29.96 in1014.6 mb 0.00 in0.0 mm 0.00 in/hr0.0 mm/hr 0.00 in0.0 mm
12:30 AM 34.4°F1.3°C 32.6°F0.3°C 93% Calm Calm -- 29.96 in1014.6 mb 0.00 in0.0 mm 0.00 in/hr0.0 mm/hr 0.00 in0.0 mm
12:25 AM 34.4°F1.3°C 32.6°F0.3°C 93% Calm Calm -- 29.96 in1014.6 mb 0.00 in0.0 mm 0.00 in/hr0.0 mm/hr 0.00 in0.0 mm
12:20 AM 34.3°F1.3°C 32.5°F0.3°C 93% Calm Calm -- 29.96 in1014.6 mb 0.00 in0.0 mm 0.00 in/hr0.0 mm/hr 0.00 in0.0 mm
12:15 AM 34.1°F1.2°C 32.3°F0.2°C 93% Calm Calm -- 29.95 in1014.2 mb 0.00 in0.0 mm 0.00 in/hr0.0 mm/hr 0.00 in0.0 mm
12:10 AM 34.1°F1.2°C 32.3°F0.2°C 93% Calm Calm -- 29.95 in1014.2 mb 0.00 in0.0 mm 0.00 in/hr0.0 mm/hr 0.00 in0.0 mm
12:05 AM 34.0°F1.1°C 32.2°F0.1°C 93% Calm Calm -- 29.94 in1013.9 mb 0.00 in0.0 mm 0.00 in/hr0.0 mm/hr 0.00 in0.0 mm
12:00 AM 33.9°F1.1°C 32.1°F0.1°C 93% Calm Calm -- 29.94 in1013.9 mb 0.00 in0.0 mm 0.00 in/hr0.0 mm/hr 0.00 in0.0 mm